Time;durP1;ratioP1;P1;durP2;ratioP2;P2;SDS_P1;SDS_P2;PMS_P1;PMS_P2;Temp;Humidity;BMP_temperature;BMP_pressure;BME280_temperature;BME280_humidity;BME280_pressure;Samples;Min_cycle;Max_cycle;Signal;HPM_P1;HPM_P2
2021/09/19 00:02:16;;;;;;;23.35;9.68;;;;;;;8.28;97.88;95321.19;4964301;28;20043;-78
2021/09/19 00:04:41;;;;;;;16.85;9.38;;;;;;;8.22;97.34;95311.72;4970867;28;20038;-77
2021/09/19 00:07:07;;;;;;;15.82;8.75;;;;;;;8.13;97.58;95314.03;4968919;28;20532;-78
2021/09/19 00:09:33;;;;;;;16.60;9.63;;;;;;;8.20;97.48;95319.06;4974411;28;20046;-77
2021/09/19 00:11:58;;;;;;;17.50;9.55;;;;;;;8.09;98.32;95313.00;4974990;28;20042;-78
2021/09/19 00:14:24;;;;;;;17.30;9.00;;;;;;;8.13;97.91;95314.84;4964217;28;20042;-78
2021/09/19 00:16:50;;;;;;;17.00;9.57;;;;;;;8.17;97.24;95309.88;4956731;28;20499;-78
2021/09/19 00:19:16;;;;;;;15.90;8.85;;;;;;;8.08;97.86;95309.59;4977093;28;20523;-77
2021/09/19 00:21:42;;;;;;;15.85;9.25;;;;;;;8.09;97.41;95313.78;4975112;28;20043;-77
2021/09/19 00:24:08;;;;;;;17.65;9.10;;;;;;;8.11;96.82;95311.69;4973543;28;20062;-78
2021/09/19 00:26:34;;;;;;;17.27;8.73;;;;;;;8.18;96.56;95305.44;4956482;28;20051;-78
2021/09/19 00:28:59;;;;;;;17.42;8.80;;;;;;;8.07;96.28;95305.38;4964157;28;20045;-78
2021/09/19 00:31:25;;;;;;;16.10;8.57;;;;;;;7.92;96.76;95297.50;4971299;28;20039;-78
2021/09/19 00:33:51;;;;;;;17.95;8.82;;;;;;;7.90;96.66;95299.56;4968847;28;20502;-77
2021/09/19 00:36:16;;;;;;;16.42;8.85;;;;;;;7.97;96.78;95295.69;4960854;28;20047;-78
2021/09/19 00:38:42;;;;;;;16.55;9.65;;;;;;;7.93;95.94;95299.03;4975233;28;20038;-77
2021/09/19 00:41:07;;;;;;;15.68;8.55;;;;;;;7.87;96.45;95294.84;4973222;28;20607;-77
2021/09/19 00:43:33;;;;;;;20.50;8.57;;;;;;;7.82;97.15;95298.25;4975675;28;20054;-78
2021/09/19 00:45:59;;;;;;;18.40;9.15;;;;;;;7.82;97.23;95289.59;4973950;28;20093;-77
2021/09/19 00:48:24;;;;;;;16.33;8.90;;;;;;;7.82;96.91;95294.84;4973983;28;20524;-77
2021/09/19 00:50:50;;;;;;;15.07;8.80;;;;;;;7.85;96.93;95286.47;4975107;28;20062;-77
2021/09/19 00:53:16;;;;;;;14.82;7.90;;;;;;;7.83;96.96;95283.28;4975057;28;20556;-77
2021/09/19 00:55:43;;;;;;;17.33;8.65;;;;;;;7.75;96.21;95277.50;4974930;28;20046;-77
2021/09/19 00:58:11;;;;;;;16.88;8.85;;;;;;;7.79;96.35;95278.56;4989653;28;20489;-78
2021/09/19 01:00:37;;;;;;;15.57;8.18;;;;;;;7.84;95.68;95284.88;4975442;28;20492;-77
2021/09/19 01:03:03;;;;;;;16.65;8.27;;;;;;;7.82;95.24;95286.97;4972484;28;20051;-77
2021/09/19 01:05:29;;;;;;;15.63;8.32;;;;;;;7.65;96.64;95287.94;4953826;28;20058;-77
2021/09/19 01:07:54;;;;;;;14.75;8.50;;;;;;;7.51;97.40;95284.22;4962542;28;20039;-77
2021/09/19 01:10:25;;;;;;;19.63;9.50;;;;;;;7.36;97.40;95280.50;4971615;28;20043;-77
2021/09/19 01:12:56;;;;;;;16.70;9.10;;;;;;;7.34;98.03;95281.78;4970321;28;20105;-77
2021/09/19 01:15:23;;;;;;;16.40;9.27;;;;;;;7.37;97.87;95284.69;4961727;28;20048;-78
2021/09/19 01:17:50;;;;;;;17.48;8.98;;;;;;;7.39;97.13;95279.97;4971769;28;20125;-77
2021/09/19 01:20:15;;;;;;;18.40;9.13;;;;;;;7.34;98.03;95281.78;4971519;28;20397;-77
2021/09/19 01:22:57;;;;;;;14.05;8.20;;;;;;;7.41;97.36;95277.91;4967688;28;20046;-78
2021/09/19 01:25:22;;;;;;;16.63;8.88;;;;;;;7.44;97.37;95271.34;4968631;28;20523;-77
2021/09/19 01:27:49;;;;;;;16.15;9.15;;;;;;;7.33;98.03;95270.53;4970249;28;20046;-77
2021/09/19 01:30:15;;;;;;;15.48;8.70;;;;;;;7.24;97.68;95277.28;4971993;28;20165;-77
2021/09/19 01:32:41;;;;;;;17.00;8.88;;;;;;;7.33;98.02;95281.00;4969741;28;20035;-77
2021/09/19 01:35:09;;;;;;;20.00;7.93;;;;;;;7.51;96.76;95279.00;4971564;28;20043;-77
2021/09/19 01:37:34;;;;;;;17.10;8.07;;;;;;;7.38;96.39;95273.16;4963560;28;20054;-77
2021/09/19 01:40:00;;;;;;;16.45;8.30;;;;;;;7.25;97.47;95273.63;4970104;28;20038;-77
2021/09/19 01:42:27;;;;;;;16.50;8.70;;;;;;;7.13;98.18;95265.19;4969973;28;20050;-77
2021/09/19 01:44:53;;;;;;;14.40;8.18;;;;;;;7.12;97.84;95269.63;4969735;28;20085;-77
2021/09/19 01:47:19;;;;;;;15.43;8.73;;;;;;;7.10;97.68;95269.88;4970746;28;20051;-77
2021/09/19 01:49:46;;;;;;;16.80;8.40;;;;;;;7.10;98.23;95261.25;4970853;28;20710;-77
2021/09/19 01:52:12;;;;;;;14.95;8.30;;;;;;;7.03;97.87;95255.44;4969400;28;20041;-77
2021/09/19 01:54:37;;;;;;;17.52;8.55;;;;;;;6.96;98.38;95255.66;4966532;28;20043;-79
2021/09/19 01:57:03;;;;;;;15.20;8.45;;;;;;;6.95;97.76;95246.22;4971478;28;20042;-78
2021/09/19 01:59:28;;;;;;;18.95;8.43;;;;;;;7.01;97.23;95249.66;4972336;28;20675;-78
2021/09/19 02:01:55;;;;;;;15.00;8.45;;;;;;;7.00;96.97;95251.50;4970320;28;20039;-78
2021/09/19 02:04:21;;;;;;;13.88;8.40;;;;;;;6.98;96.73;95243.09;4966287;28;20401;-78
2021/09/19 02:06:46;;;;;;;14.00;8.23;;;;;;;7.06;96.46;95239.25;4962480;28;20167;-79
2021/09/19 02:09:12;;;;;;;19.63;8.02;;;;;;;6.95;96.96;95238.38;4962182;28;20061;-78
2021/09/19 02:11:37;;;;;;;14.70;7.90;;;;;;;6.89;96.75;95234.94;4973209;28;20046;-78
2021/09/19 02:14:03;;;;;;;18.02;8.50;;;;;;;6.87;97.85;95223.19;4968840;28;20043;-78
2021/09/19 02:16:29;;;;;;;14.65;8.45;;;;;;;6.88;97.45;95222.13;4967232;28;20079;-79
2021/09/19 02:18:56;;;;;;;14.43;8.05;;;;;;;6.78;97.30;95225.47;4972584;28;20530;-78
2021/09/19 02:21:22;;;;;;;14.55;8.02;;;;;;;6.84;97.93;95224.47;4973409;28;20707;-78
2021/09/19 02:23:48;;;;;;;13.52;8.05;;;;;;;6.91;97.15;95232.06;4967484;28;20046;-78
2021/09/19 02:26:13;;;;;;;17.42;8.30;;;;;;;6.83;98.21;95224.72;4970873;28;20113;-78
2021/09/19 02:28:39;;;;;;;16.90;8.18;;;;;;;6.74;98.53;95216.56;4972758;28;20468;-79
2021/09/19 02:31:05;;;;;;;13.63;7.82;;;;;;;6.67;98.05;95219.38;4971215;28;20061;-78
2021/09/19 02:33:31;;;;;;;13.73;7.95;;;;;;;6.72;97.32;95208.97;4965138;28;20035;-78
2021/09/19 02:35:56;;;;;;;14.73;7.80;;;;;;;6.70;97.33;95216.25;4958680;28;20046;-79
2021/09/19 02:38:22;;;;;;;15.32;8.20;;;;;;;6.71;97.30;95217.84;4967179;28;20456;-78
2021/09/19 02:40:48;;;;;;;19.90;8.65;;;;;;;6.67;97.43;95215.97;4972714;28;20417;-78
2021/09/19 02:43:13;;;;;;;14.20;8.35;;;;;;;6.70;97.35;95211.03;4972607;28;20051;-79
2021/09/19 02:45:40;;;;;;;18.15;8.32;;;;;;;6.84;96.68;95211.38;4970458;28;20049;-78
2021/09/19 02:48:06;;;;;;;14.52;7.82;;;;;;;6.77;96.13;95200.34;4970918;28;20058;-78
2021/09/19 02:50:31;;;;;;;16.65;8.35;;;;;;;6.74;96.33;95201.63;4972404;28;20501;-78
2021/09/19 02:52:57;;;;;;;15.20;8.63;;;;;;;6.52;97.15;95203.56;4967470;28;20035;-79
2021/09/19 02:55:22;;;;;;;14.63;8.52;;;;;;;6.34;98.28;95196.91;4972040;28;20042;-78
2021/09/19 02:57:48;;;;;;;15.82;7.63;;;;;;;6.43;97.75;95194.63;4972428;28;20047;-79
2021/09/19 03:00:17;;;;;;;14.77;7.47;;;;;;;6.40;98.12;95196.69;4972117;28;20117;-78
2021/09/19 03:02:43;;;;;;;14.48;7.90;;;;;;;6.42;97.34;95188.59;4962254;28;20576;-79
2021/09/19 03:05:10;;;;;;;19.73;7.88;;;;;;;6.50;96.72;95189.97;4955824;28;20109;-78
2021/09/19 03:07:36;;;;;;;14.60;8.05;;;;;;;6.40;96.56;95181.00;4964835;28;20038;-79
2021/09/19 03:10:03;;;;;;;13.30;7.85;;;;;;;6.36;96.83;95190.38;4971911;28;20049;-78
2021/09/19 03:12:28;;;;;;;13.70;7.47;;;;;;;6.34;98.13;95182.03;4971421;28;20049;-78
2021/09/19 03:14:54;;;;;;;13.40;7.30;;;;;;;6.35;96.80;95183.59;4963821;28;20051;-79
2021/09/19 03:17:19;;;;;;;15.25;7.43;;;;;;;6.35;96.94;95177.56;4971921;28;20047;-78
2021/09/19 03:19:45;;;;;;;15.75;7.82;;;;;;;6.28;97.15;95172.56;4970804;28;20071;-78
2021/09/19 03:22:10;;;;;;;16.55;8.30;;;;;;;6.26;97.39;95168.63;4971801;28;20043;-78
2021/09/19 03:24:36;;;;;;;15.05;8.48;;;;;;;6.33;97.72;95169.97;4970082;28;20053;-78
2021/09/19 03:27:02;;;;;;;19.42;8.38;;;;;;;6.22;97.80;95157.88;4970574;28;20069;-78
2021/09/19 03:29:27;;;;;;;15.50;7.47;;;;;;;6.16;98.31;95161.50;4970516;28;20047;-79
2021/09/19 03:31:53;;;;;;;17.08;7.80;;;;;;;6.17;97.90;95155.25;4969803;28;20046;-78
2021/09/19 03:34:18;;;;;;;16.65;8.27;;;;;;;6.00;99.01;95150.91;4970772;28;20049;-78
2021/09/19 03:36:44;;;;;;;15.57;8.15;;;;;;;6.16;97.80;95143.19;4961978;28;20498;-78
2021/09/19 03:39:09;;;;;;;13.32;7.60;;;;;;;6.27;96.97;95139.63;4956638;28;20041;-79
2021/09/19 03:41:35;;;;;;;15.25;8.13;;;;;;;6.18;96.99;95141.16;4971158;28;20047;-78
2021/09/19 03:44:01;;;;;;;14.23;8.30;;;;;;;6.09;98.56;95142.63;4971878;28;20113;-78
2021/09/19 03:46:27;;;;;;;16.13;8.15;;;;;;;6.27;96.89;95144.06;4966729;28;20537;-78
2021/09/19 03:48:53;;;;;;;13.95;7.82;;;;;;;6.20;96.54;95144.28;4970001;28;20043;-78
2021/09/19 03:51:19;;;;;;;15.50;7.88;;;;;;;6.20;96.60;95149.50;4970267;28;20047;-78
2021/09/19 03:53:45;;;;;;;14.63;7.63;;;;;;;6.14;97.05;95137.44;4969703;28;20042;-79
2021/09/19 03:56:11;;;;;;;13.27;7.35;;;;;;;6.23;97.00;95143.78;4956246;28;20043;-78
2021/09/19 03:58:37;;;;;;;12.68;7.30;;;;;;;6.22;96.79;95142.19;4971172;28;20046;-78
2021/09/19 04:01:03;;;;;;;13.82;7.60;;;;;;;6.26;95.73;95143.28;4952020;28;20734;-78
2021/09/19 04:03:28;;;;;;;13.80;7.63;;;;;;;6.06;96.80;95144.72;4952502;28;20051;-77
2021/09/19 04:05:54;;;;;;;17.20;8.18;;;;;;;6.10;96.88;95144.22;4966083;28;20046;-78
2021/09/19 04:08:19;;;;;;;13.38;7.72;;;;;;;6.00;97.81;95150.91;4971627;28;20050;-79
2021/09/19 04:10:45;;;;;;;17.52;8.10;;;;;;;6.04;97.49;95146.78;4970797;28;20039;-78
2021/09/19 04:13:10;;;;;;;14.85;8.15;;;;;;;6.01;97.21;95152.50;4968614;28;20782;-78
2021/09/19 04:15:36;;;;;;;15.70;7.97;;;;;;;5.91;97.36;95147.16;4968195;28;20485;-78
2021/09/19 04:18:01;;;;;;;14.75;8.20;;;;;;;5.79;98.50;95149.13;4970553;28;20098;-79
2021/09/19 04:20:27;;;;;;;14.38;7.88;;;;;;;5.79;98.05;95146.50;4971655;28;20453;-78
2021/09/19 04:22:53;;;;;;;13.10;7.95;;;;;;;5.82;98.01;95153.84;4969892;28;20050;-78
2021/09/19 04:25:18;;;;;;;17.63;7.72;;;;;;;5.77;98.05;95153.81;4965829;28;20402;-78
2021/09/19 04:27:44;;;;;;;14.07;8.02;;;;;;;5.75;98.67;95153.25;4968637;28;20548;-79
2021/09/19 04:30:10;;;;;;;16.35;9.25;;;;;;;5.77;98.38;95153.81;4969139;28;20046;-78
2021/09/19 04:32:37;;;;;;;17.05;8.10;;;;;;;5.75;98.96;95158.50;4964076;28;20043;-79
2021/09/19 04:35:03;;;;;;;14.45;8.02;;;;;;;5.80;98.53;95161.16;4970618;28;20062;-78
2021/09/19 04:37:29;;;;;;;54.92;11.55;;;;;;;5.84;100.00;95157.03;4964229;28;20043;-78
2021/09/19 04:39:55;;;;;;;36.80;12.18;;;;;;;5.93;100.00;95165.97;4970805;28;20415;-78
2021/09/19 04:42:22;;;;;;;33.33;11.55;;;;;;;5.87;100.00;95157.28;4972470;28;20042;-79
2021/09/19 04:44:48;;;;;;;47.35;12.27;;;;;;;5.81;100.00;95162.75;4973362;28;20051;-78
2021/09/19 04:47:14;;;;;;;38.17;11.80;;;;;;;5.84;100.00;95162.25;4956673;28;20609;-78
2021/09/19 04:49:40;;;;;;;94.93;13.98;;;;;;;5.70;100.00;95157.44;4973528;28;20046;-78
2021/09/19 04:52:06;;;;;;;50.90;14.15;;;;;;;5.60;100.00;95157.31;4971319;28;20038;-78
2021/09/19 04:54:32;;;;;;;56.30;14.50;;;;;;;5.50;100.00;95168.44;4969455;28;20058;-78
2021/09/19 04:56:59;;;;;;;34.53;13.38;;;;;;;5.52;100.00;95161.16;4964374;28;20050;-78
2021/09/19 04:59:25;;;;;;;30.33;12.63;;;;;;;5.67;100.00;95157.91;4974528;28;20081;-79
2021/09/19 05:01:51;;;;;;;31.80;12.45;;;;;;;5.70;100.00;95161.84;4972583;28;20043;-78
2021/09/19 05:04:17;;;;;;;26.85;11.32;;;;;;;5.76;100.00;95170.53;4973184;28;20042;-78
2021/09/19 05:06:42;;;;;;;28.23;11.88;;;;;;;5.78;100.00;95173.69;4970399;28;20042;-78
2021/09/19 05:09:08;;;;;;;28.20;11.48;;;;;;;5.86;100.00;95165.38;4974450;28;20125;-79
2021/09/19 05:11:34;;;;;;;30.42;10.93;;;;;;;6.00;100.00;95163.97;4963697;28;20046;-79
2021/09/19 05:14:00;;;;;;;28.33;11.40;;;;;;;6.19;100.00;95168.81;4968991;28;20512;-78
2021/09/19 05:16:26;;;;;;;25.13;10.75;;;;;;;6.14;100.00;95166.19;4957952;28;20545;-78
2021/09/19 05:18:54;;;;;;;31.58;13.20;;;;;;;6.10;100.00;95175.56;4972635;28;20049;-78
2021/09/19 05:21:20;;;;;;;32.08;12.18;;;;;;;6.12;100.00;95173.47;4970416;28;20043;-79
2021/09/19 05:23:45;;;;;;;62.10;13.77;;;;;;;6.17;100.00;95176.91;4965568;28;20451;-79
2021/09/19 05:26:11;;;;;;;35.20;13.20;;;;;;;6.13;100.00;95175.06;4967943;28;20038;-79
2021/09/19 05:28:37;;;;;;;41.60;12.50;;;;;;;6.12;100.00;95168.25;4974257;28;20050;-79
2021/09/19 05:31:02;;;;;;;47.28;14.00;;;;;;;6.35;100.00;95170.53;4964852;28;20047;-78
2021/09/19 05:33:28;;;;;;;51.92;14.80;;;;;;;6.24;100.00;95171.50;4953635;29;20130;-79
2021/09/19 05:35:53;;;;;;;40.83;15.25;;;;;;;6.07;100.00;95177.63;4966275;28;20744;-78
2021/09/19 05:38:19;;;;;;;40.92;15.85;;;;;;;5.80;100.00;95182.03;4974418;28;20110;-78
2021/09/19 05:40:45;;;;;;;45.53;16.48;;;;;;;5.86;100.00;95189.69;4972060;28;20050;-79
2021/09/19 05:43:11;;;;;;;33.67;12.63;;;;;;;6.12;100.00;95184.72;4972713;28;20436;-79
2021/09/19 05:45:36;;;;;;;30.70;13.18;;;;;;;6.21;100.00;95185.06;4971394;28;20038;-78
2021/09/19 05:48:02;;;;;;;31.88;12.65;;;;;;;6.22;100.00;95189.22;4967820;28;20035;-78
2021/09/19 05:50:28;;;;;;;29.27;12.27;;;;;;;6.26;100.00;95190.31;4969083;28;20474;-78
2021/09/19 05:52:53;;;;;;;32.72;12.48;;;;;;;6.32;100.00;95189.34;4968469;28;20047;-78
2021/09/19 05:55:19;;;;;;;29.77;12.25;;;;;;;6.53;100.00;95181.63;4967843;28;20050;-79
2021/09/19 05:57:45;;;;;;;26.63;12.13;;;;;;;6.52;100.00;95182.66;4970863;28;20050;-81
2021/09/19 06:00:11;;;;;;;26.90;12.35;;;;;;;6.49;100.00;95170.09;4969313;28;20054;-78
2021/09/19 06:02:37;;;;;;;31.23;12.57;;;;;;;6.45;100.00;95172.44;4959599;28;20039;-77
2021/09/19 06:05:04;;;;;;;31.25;13.02;;;;;;;6.46;100.00;95168.00;4970428;28;20078;-77
2021/09/19 06:07:30;;;;;;;31.27;13.02;;;;;;;6.43;100.00;95171.88;4968887;28;20049;-77
2021/09/19 06:09:56;;;;;;;29.58;13.63;;;;;;;6.51;100.00;95157.56;4970269;28;20035;-78
2021/09/19 06:12:21;;;;;;;34.58;13.98;;;;;;;6.69;100.00;95157.13;4970457;28;20046;-77
2021/09/19 06:14:47;;;;;;;33.65;14.35;;;;;;;6.82;100.00;95160.34;4965590;28;20039;-77
2021/09/19 06:17:12;;;;;;;39.50;16.20;;;;;;;6.99;100.00;95160.97;4964988;28;20094;-77
2021/09/19 06:19:38;;;;;;;46.15;18.60;;;;;;;7.13;100.00;95160.53;4969155;28;20058;-78
2021/09/19 06:22:04;;;;;;;38.33;16.27;;;;;;;7.18;100.00;95163.91;4970979;28;20764;-77
2021/09/19 06:24:30;;;;;;;36.30;16.05;;;;;;;7.28;100.00;95157.94;4968241;28;20047;-78
2021/09/19 06:26:58;;;;;;;33.88;14.55;;;;;;;7.27;100.00;95156.38;4965391;28;20117;-77
2021/09/19 06:29:24;;;;;;;34.10;14.27;;;;;;;7.32;100.00;95153.78;4969768;28;20141;-77
2021/09/19 06:31:50;;;;;;;32.15;14.68;;;;;;;7.41;100.00;95162.72;4970713;28;20046;-77
2021/09/19 06:34:16;;;;;;;30.65;15.00;;;;;;;7.44;100.00;95159.56;4963933;28;20066;-77
2021/09/19 06:36:41;;;;;;;35.20;16.10;;;;;;;7.48;100.00;95161.69;4960839;28;20044;-77
2021/09/19 06:39:08;;;;;;;43.38;19.88;;;;;;;7.70;100.00;95159.63;4952933;28;20054;-77
2021/09/19 06:41:34;;;;;;;40.72;17.60;;;;;;;7.82;100.00;95156.00;4969892;28;20047;-76
2021/09/19 06:43:59;;;;;;;32.47;15.20;;;;;;;7.82;100.00;95156.00;4970441;28;20051;-76
2021/09/19 06:46:29;;;;;;;30.83;15.15;;;;;;;7.85;100.00;95150.22;4961877;28;20141;-76
2021/09/19 06:48:56;;;;;;;41.72;20.02;;;;;;;8.10;100.00;95147.63;4969250;28;20053;-76
2021/09/19 06:51:22;;;;;;;37.55;17.60;;;;;;;8.17;100.00;95146.56;4970416;28;20039;-77
2021/09/19 06:53:48;;;;;;;45.30;20.67;;;;;;;8.43;100.00;95149.97;4961333;28;20050;-76
2021/09/19 06:56:14;;;;;;;35.30;17.40;;;;;;;8.42;100.00;95143.94;4966293;28;20039;-76
2021/09/19 06:58:40;;;;;;;35.50;17.83;;;;;;;8.44;100.00;95136.63;4968359;28;20567;-76
2021/09/19 07:01:07;;;;;;;39.25;19.52;;;;;;;8.67;100.00;95144.97;4963992;28;20050;-76
2021/09/19 07:03:33;;;;;;;40.60;19.50;;;;;;;8.82;100.00;95144.94;4960799;28;20053;-76
2021/09/19 07:05:59;;;;;;;39.05;19.33;;;;;;;8.92;100.00;95140.72;4965661;28;20520;-76
2021/09/19 07:08:24;;;;;;;34.70;17.85;;;;;;;8.90;100.00;95132.34;4954889;28;20038;-76
2021/09/19 07:10:51;;;;;;;39.55;18.77;;;;;;;9.03;100.00;95137.00;4968259;28;20047;-76
2021/09/19 07:13:17;;;;;;;38.78;19.20;;;;;;;9.06;100.00;95136.47;4949972;28;20051;-76
2021/09/19 07:15:43;;;;;;;39.17;18.52;;;;;;;9.09;100.00;95135.91;4960932;28;20841;-76
2021/09/19 07:18:10;;;;;;;37.88;18.27;;;;;;;9.15;100.00;95139.31;4970071;28;20101;-76
2021/09/19 07:20:37;;;;;;;35.47;16.98;;;;;;;9.17;100.00;95143.25;4969936;28;20097;-76
2021/09/19 07:23:03;;;;;;;38.03;18.58;;;;;;;9.28;100.00;95137.94;4969283;28;20039;-76
2021/09/19 07:25:28;;;;;;;37.67;19.35;;;;;;;9.71;100.00;95146.13;4964828;28;20043;-76
2021/09/19 07:27:54;;;;;;;38.00;19.10;;;;;;;9.68;100.00;95141.41;4971314;28;20508;-76
2021/09/19 07:30:20;;;;;;;35.10;17.33;;;;;;;9.81;100.00;95140.81;4970327;28;20408;-76
2021/09/19 07:32:45;;;;;;;33.47;17.67;;;;;;;9.96;100.00;95131.25;4960957;28;20050;-76
2021/09/19 07:35:11;;;;;;;32.47;16.50;;;;;;;10.19;100.00;95135.81;4962792;28;20046;-77
2021/09/19 07:37:37;;;;;;;31.00;15.07;;;;;;;10.09;100.00;95140.38;4967595;28;20513;-78
2021/09/19 07:40:04;;;;;;;30.85;16.35;;;;;;;10.13;100.00;95147.44;4971508;28;20047;-78
2021/09/19 07:42:30;;;;;;;24.10;14.43;;;;;;;10.20;100.00;95144.47;4972980;28;20451;-78
2021/09/19 07:44:55;;;;;;;32.17;15.57;;;;;;;10.48;99.48;95142.94;4968652;28;20122;-77
2021/09/19 07:47:25;;;;;;;28.83;15.40;;;;;;;10.66;99.38;95148.56;4963388;28;20046;-77
2021/09/19 07:49:51;;;;;;;28.33;15.18;;;;;;;10.73;99.35;95149.84;4968498;28;20042;-77
2021/09/19 07:52:18;;;;;;;24.42;14.30;;;;;;;10.72;98.33;95152.75;4968699;28;20412;-75
2021/09/19 07:54:44;;;;;;;27.25;14.07;;;;;;;10.69;99.37;95153.31;4969278;28;20050;-76
2021/09/19 07:57:09;;;;;;;25.83;13.88;;;;;;;10.83;98.68;95154.22;4969383;28;20468;-76
2021/09/19 07:59:36;;;;;;;24.58;14.10;;;;;;;10.86;97.90;95158.91;4970087;28;20093;-77
2021/09/19 08:02:02;;;;;;;29.77;14.93;;;;;;;10.89;98.51;95153.09;4967969;28;20038;-77
2021/09/19 08:04:27;;;;;;;33.08;17.30;;;;;;;10.94;98.30;95148.84;4968237;28;20126;-76
2021/09/19 08:06:53;;;;;;;32.72;17.92;;;;;;;11.02;97.97;95150.84;4957971;28;20075;-76
2021/09/19 08:09:19;;;;;;;32.03;17.33;;;;;;;11.04;97.38;95143.44;4969663;28;20043;-76
2021/09/19 08:11:44;;;;;;;34.13;18.25;;;;;;;11.15;98.40;95144.91;4967235;28;20492;-80
2021/09/19 08:14:10;;;;;;;32.65;18.38;;;;;;;11.30;97.14;95151.06;4967044;28;20726;-78
2021/09/19 08:16:38;;;;;;;32.40;17.90;;;;;;;11.34;97.20;95154.69;4965580;28;20043;-77
2021/09/19 08:19:05;;;;;;;32.83;17.40;;;;;;;11.35;96.28;95158.88;4967195;28;20074;-79
2021/09/19 08:21:31;;;;;;;28.42;16.55;;;;;;;11.46;97.18;95155.06;4972671;28;20039;-76
2021/09/19 08:23:57;;;;;;;27.10;15.07;;;;;;;11.44;97.67;95147.44;4970775;28;20460;-77
2021/09/19 08:26:22;;;;;;;24.67;14.10;;;;;;;11.57;96.05;95143.31;4975494;28;20488;-78
2021/09/19 08:28:48;;;;;;;30.17;14.55;;;;;;;11.65;95.57;95156.94;4974753;28;20069;-77
2021/09/19 08:31:13;;;;;;;24.95;14.60;;;;;;;11.72;95.31;95146.81;4974942;28;20043;-78
2021/09/19 08:33:39;;;;;;;26.95;12.70;;;;;;;11.81;94.81;95155.66;4972791;28;20082;-79
2021/09/19 08:36:05;;;;;;;21.60;12.60;;;;;;;11.89;94.56;95152.38;4971308;28;20050;-80
2021/09/19 08:38:31;;;;;;;21.17;12.38;;;;;;;11.91;93.11;95150.25;4973647;28;20049;-80
2021/09/19 08:40:57;;;;;;;22.45;11.57;;;;;;;12.02;94.01;95158.03;4974179;28;20567;-76
2021/09/19 08:43:22;;;;;;;19.52;11.15;;;;;;;12.08;94.59;95154.22;4975089;28;20043;-76
2021/09/19 08:45:49;;;;;;;23.23;13.40;;;;;;;12.15;93.85;95152.00;4968363;28;20094;-76
2021/09/19 08:48:21;;;;;;;27.17;15.18;;;;;;;12.26;93.47;95145.50;4974490;28;20114;-77
2021/09/19 08:50:53;;;;;;;30.17;16.25;;;;;;;12.35;94.31;95152.78;4967700;28;20043;-77
2021/09/19 08:53:19;;;;;;;32.13;18.45;;;;;;;12.36;93.82;95149.84;4956320;28;20050;-77
2021/09/19 08:55:45;;;;;;;34.42;19.15;;;;;;;12.49;94.32;95156.22;4970634;28;20035;-77
2021/09/19 08:58:12;;;;;;;36.13;19.77;;;;;;;12.59;94.13;95157.91;4974711;28;20043;-78
2021/09/19 09:00:44;;;;;;;42.00;19.13;;;;;;;12.71;93.02;95138.97;4957789;28;20176;-76
2021/09/19 09:03:15;;;;;;;34.50;19.15;;;;;;;12.73;92.12;95142.09;4956425;28;20043;-76
2021/09/19 09:05:41;;;;;;;36.72;19.98;;;;;;;12.82;93.11;95145.63;4969656;28;20051;-77
2021/09/19 09:08:08;;;;;;;34.70;19.17;;;;;;;12.85;93.13;95144.28;4972180;28;20047;-77
2021/09/19 09:10:39;;;;;;;35.13;20.02;;;;;;;12.89;92.01;95148.69;4971809;28;20082;-78
2021/09/19 09:13:08;;;;;;;36.20;20.70;;;;;;;12.95;92.15;95136.94;4972484;28;20043;-77
2021/09/19 09:15:40;;;;;;;38.75;21.35;;;;;;;13.12;92.25;95146.16;4972365;28;20797;-77
2021/09/19 09:18:07;;;;;;;39.35;20.23;;;;;;;13.21;91.64;95147.00;4964983;28;20783;-77
2021/09/19 09:20:54;;;;;;;38.60;21.02;;;;;;;13.16;92.12;95139.97;4971634;28;20572;-75
2021/09/19 09:23:24;;;;;;;37.47;20.73;;;;;;;13.39;91.77;95144.56;4971621;28;20109;-76
2021/09/19 09:26:12;;;;;;;41.08;22.75;;;;;;;13.47;91.19;95138.59;4966774;28;20079;-76
2021/09/19 09:28:52;;;;;;;34.95;18.60;;;;;;;13.60;89.59;95147.59;4970484;28;20035;-76
2021/09/19 09:31:29;;;;;;;33.33;19.95;;;;;;;13.80;89.27;95135.78;4971503;28;20045;-75
2021/09/19 09:34:01;;;;;;;33.83;18.52;;;;;;;13.91;88.98;95142.41;4966839;28;20047;-76
2021/09/19 09:36:46;;;;;;;34.47;19.83;;;;;;;13.96;88.14;95139.63;4966924;28;20764;-76
2021/09/19 09:39:24;;;;;;;33.22;19.70;;;;;;;14.07;88.01;95144.72;4969145;28;20049;-76
2021/09/19 09:41:50;;;;;;;37.17;21.92;;;;;;;14.09;88.36;95138.03;4971180;28;20495;-76
2021/09/19 09:44:39;;;;;;;37.40;21.48;;;;;;;14.33;87.12;95137.72;4967043;28;20102;-77
2021/09/19 09:47:10;;;;;;;40.35;23.10;;;;;;;14.37;86.81;95138.69;4962322;28;20464;-76
2021/09/19 09:49:38;;;;;;;40.70;23.15;;;;;;;14.46;86.74;95145.91;4971035;28;20038;-77
2021/09/19 09:52:06;;;;;;;41.83;23.27;;;;;;;14.62;86.63;95144.44;4952770;28;20070;-76
2021/09/19 09:54:39;;;;;;;40.40;22.98;;;;;;;14.80;85.64;95139.25;4963992;28;20062;-75
2021/09/19 09:57:07;;;;;;;35.75;21.65;;;;;;;15.19;85.08;95140.34;4969457;28;20042;-76
2021/09/19 09:59:33;;;;;;;41.28;22.98;;;;;;;15.30;84.36;95128.38;4964803;28;20042;-75
2021/09/19 10:02:02;;;;;;;41.50;22.80;;;;;;;15.53;83.49;95129.03;4962881;28;20054;-77
2021/09/19 10:04:29;;;;;;;37.47;20.33;;;;;;;15.69;80.84;95126.72;4962771;28;20047;-76
2021/09/19 10:06:55;;;;;;;38.15;20.08;;;;;;;15.64;82.08;95124.19;4963876;28;20057;-76
2021/09/19 10:09:22;;;;;;;39.00;21.48;;;;;;;15.47;82.47;95132.91;4968460;28;20044;-76
2021/09/19 10:11:48;;;;;;;30.38;18.92;;;;;;;15.85;80.51;95124.41;4966136;28;20043;-76
2021/09/19 10:14:14;;;;;;;29.40;17.58;;;;;;;16.20;78.40;95123.59;4969694;28;20065;-76
2021/09/19 10:16:41;;;;;;;26.55;16.08;;;;;;;15.82;78.40;95129.56;4969265;28;20051;-75
2021/09/19 10:19:07;;;;;;;24.63;14.57;;;;;;;15.93;77.11;95131.59;4971193;28;20045;-76
2021/09/19 10:21:35;;;;;;;23.73;13.68;;;;;;;15.84;77.61;95119.41;4969801;28;20051;-76
2021/09/19 10:24:02;;;;;;;24.05;13.45;;;;;;;16.15;77.18;95118.44;4966530;28;20257;-76
2021/09/19 10:26:27;;;;;;;24.65;14.05;;;;;;;16.60;71.99;95124.13;4968492;28;20035;-75
2021/09/19 10:28:54;;;;;;;19.00;12.52;;;;;;;17.58;71.93;95120.75;4969634;28;20097;-75
2021/09/19 10:31:23;;;;;;;20.63;12.27;;;;;;;18.36;68.36;95105.28;4970955;28;20089;-79
2021/09/19 10:33:49;;;;;;;20.30;12.02;;;;;;;18.90;66.35;95119.63;4969212;28;20073;-76
2021/09/19 10:36:31;;;;;;;21.88;12.23;;;;;;;17.77;66.99;95112.34;4965455;28;20481;-77
2021/09/19 10:39:25;;;;;;;21.40;12.43;;;;;;;18.02;66.10;95117.78;4964741;28;20167;-76
2021/09/19 10:42:25;;;;;;;21.85;13.93;;;;;;;18.38;64.90;95113.72;4961302;28;20131;-76
2021/09/19 10:44:51;;;;;;;21.15;12.85;;;;;;;17.98;64.57;95116.88;4967608;28;20043;-76
2021/09/19 10:47:22;;;;;;;23.45;13.13;;;;;;;18.18;64.90;95121.41;4969902;28;20054;-75
2021/09/19 10:49:48;;;;;;;20.17;13.00;;;;;;;18.60;61.57;95117.84;4971490;28;20046;-76
2021/09/19 10:52:18;;;;;;;20.40;12.43;;;;;;;18.77;61.81;95119.56;4969193;28;20494;-76
2021/09/19 10:54:50;;;;;;;21.25;12.85;;;;;;;19.33;61.10;95123.63;4970521;28;20075;-76
2021/09/19 10:57:22;;;;;;;20.95;13.05;;;;;;;19.48;60.72;95114.94;4953989;28;20059;-76
2021/09/19 11:00:24;;;;;;;22.33;14.57;;;;;;;19.01;60.48;95112.75;4953228;28;20043;-77
2021/09/19 11:03:02;;;;;;;20.60;13.68;;;;;;;18.55;62.72;95106.63;4912254;29;20056;-76
2021/09/19 11:05:29;;;;;;;21.05;13.57;;;;;;;19.33;61.45;95102.28;4961825;28;20059;-77
2021/09/19 11:08:15;;;;;;;21.83;13.95;;;;;;;20.35;56.58;95106.69;4954618;28;20071;-77
2021/09/19 11:10:55;;;;;;;20.52;13.88;;;;;;;19.78;59.62;95103.19;4952250;29;20055;-77
2021/09/19 11:13:28;;;;;;;18.42;12.93;;;;;;;20.50;59.16;95097.91;4955667;28;20047;-76
2021/09/19 11:16:06;;;;;;;18.35;12.75;;;;;;;20.85;57.22;95105.28;4963699;28;20124;-76
2021/09/19 11:18:34;;;;;;;18.73;11.65;;;;;;;21.53;57.12;95098.06;4952318;28;20043;-77
2021/09/19 11:21:18;;;;;;;23.20;13.52;;;;;;;20.51;56.54;95104.03;4960593;28;20046;-77
2021/09/19 11:23:46;;;;;;;20.52;14.13;;;;;;;20.02;57.07;95102.38;4964894;28;20058;-76
2021/09/19 11:26:34;;;;;;;16.60;12.40;;;;;;;20.75;57.97;95113.84;4953604;28;20142;-76